createdAt,value
2018-12-13T00:00:47.616Z,100685.31
2018-12-13T00:03:13.726Z,100683.41
2018-12-13T00:05:39.982Z,100677.05
2018-12-13T00:08:06.322Z,100674.50
2018-12-13T00:10:32.635Z,100678.34
2018-12-13T00:12:59.739Z,100673.49
2018-12-13T00:15:27.986Z,100674.09
2018-12-13T00:17:54.315Z,100676.94
2018-12-13T00:20:21.127Z,100674.86
2018-12-13T00:22:54.090Z,100673.91
2018-12-13T00:25:20.308Z,100605.52
2018-12-13T00:27:46.529Z,100670.66
2018-12-13T00:30:13.555Z,100677.83
2018-12-13T00:32:39.770Z,100673.20
2018-12-13T00:37:49.436Z,100676.41
2018-12-13T00:40:15.634Z,100672.56
2018-12-13T00:42:41.795Z,100673.50
2018-12-13T00:45:15.089Z,100668.07
2018-12-13T00:47:41.211Z,100675.59
2018-12-13T00:50:07.846Z,100670.57
2018-12-13T00:52:33.987Z,100674.19
2018-12-13T00:55:00.206Z,100669.77
2018-12-13T00:57:26.326Z,100669.61
2018-12-13T00:59:53.019Z,100670.00
2018-12-13T01:02:19.242Z,100671.60
2018-12-13T01:04:45.549Z,100673.99
2018-12-13T01:07:12.851Z,100674.36
2018-12-13T01:09:39.147Z,100675.22
2018-12-13T01:12:05.367Z,100671.78
2018-12-13T01:14:31.573Z,100677.17
2018-12-13T01:16:57.882Z,100669.84
2018-12-13T01:19:24.173Z,100666.59
2018-12-13T01:21:50.293Z,100667.48
2018-12-13T01:24:16.374Z,100671.66
2018-12-13T01:26:49.578Z,100668.04
2018-12-13T01:29:15.676Z,100661.08
2018-12-13T01:31:41.953Z,100664.84
2018-12-13T01:34:08.073Z,100660.89
2018-12-13T01:36:34.331Z,100660.55
2018-12-13T01:39:00.460Z,100663.17
2018-12-13T01:41:26.573Z,100664.30
2018-12-13T01:43:52.872Z,100655.14
2018-12-13T01:46:19.968Z,100656.86
2018-12-13T01:48:46.081Z,100660.34
2018-12-13T01:51:12.213Z,100653.78
2018-12-13T01:53:38.317Z,100656.11
2018-12-13T01:56:04.498Z,100651.39
2018-12-13T01:58:30.639Z,100642.91
2018-12-13T02:00:56.801Z,100646.84
2018-12-13T02:03:23.396Z,100646.66
2018-12-13T02:05:49.513Z,100647.23
2018-12-13T02:08:15.689Z,100649.64
2018-12-13T02:10:42.088Z,100644.27
2018-12-13T02:13:08.322Z,100649.23
2018-12-13T02:15:34.478Z,100650.77
2018-12-13T02:18:07.708Z,100649.19
2018-12-13T02:20:33.842Z,100652.65
2018-12-13T02:23:00.109Z,100648.94
2018-12-13T02:25:26.342Z,100635.42
2018-12-13T02:27:52.481Z,100639.42
2018-12-13T02:30:20.722Z,100639.64
2018-12-13T02:32:47.192Z,100633.67
2018-12-13T02:35:13.426Z,100636.23
2018-12-13T02:37:39.543Z,100637.77
2018-12-13T02:40:05.955Z,100636.32
2018-12-13T02:42:32.102Z,100637.17
2018-12-13T02:44:58.242Z,100631.41
2018-12-13T02:47:25.315Z,100625.64
2018-12-13T02:49:51.556Z,100620.77
2018-12-13T02:52:17.780Z,100614.88
2018-12-13T02:54:43.962Z,100617.17
2018-12-13T02:57:11.096Z,100608.08
2018-12-13T02:59:37.251Z,100610.22
2018-12-13T03:02:03.580Z,100605.84
2018-12-13T03:04:29.815Z,100614.53
2018-12-13T03:06:55.981Z,100617.72
2018-12-13T03:09:22.236Z,100617.87
2018-12-13T03:11:48.416Z,100615.92
2018-12-13T03:14:14.564Z,100612.84
2018-12-13T03:16:40.732Z,100613.28
2018-12-13T03:19:06.892Z,100611.80
2018-12-13T03:21:33.234Z,100605.19
2018-12-13T03:23:59.570Z,100599.89
2018-12-13T03:26:25.815Z,100598.66
2018-12-13T03:28:51.985Z,100597.72
2018-12-13T03:33:57.545Z,100585.63
2018-12-13T03:36:23.755Z,100592.40
2018-12-13T03:38:49.860Z,100589.03
2018-12-13T03:41:16.201Z,100582.44
2018-12-13T03:43:49.281Z,100588.69
2018-12-13T03:46:15.652Z,100586.28
2018-12-13T03:48:41.815Z,100581.38
2018-12-13T03:51:08.116Z,100580.94
2018-12-13T03:53:34.333Z,100568.83
2018-12-13T03:56:00.528Z,100580.33
2018-12-13T03:58:26.698Z,100575.50
2018-12-13T04:00:53.540Z,100569.41
2018-12-13T04:03:19.764Z,100570.61
2018-12-13T04:05:45.865Z,100579.69
2018-12-13T04:08:12.006Z,100576.13
2018-12-13T04:10:38.217Z,100576.30
2018-12-13T04:13:04.349Z,100578.20
2018-12-13T04:15:30.761Z,100576.13
2018-12-13T04:17:56.871Z,100575.00
2018-12-13T04:20:23.322Z,100577.62
2018-12-13T04:22:49.464Z,100576.30
2018-12-13T04:25:15.588Z,100573.74
2018-12-13T04:27:41.702Z,100571.83
2018-12-13T04:30:08.076Z,100573.38
2018-12-13T04:32:34.184Z,100570.58
2018-12-13T04:35:00.306Z,100571.55
2018-12-13T04:37:26.587Z,100568.25
2018-12-13T04:39:52.712Z,100573.61
2018-12-13T04:42:18.965Z,100571.17
2018-12-13T04:44:45.309Z,100574.60
2018-12-13T04:47:11.457Z,100569.14
2018-12-13T04:49:37.682Z,100578.95
2018-12-13T04:52:03.900Z,100577.91
2018-12-13T04:54:30.009Z,100575.58
2018-12-13T04:56:56.316Z,100574.41
2018-12-13T04:59:22.462Z,100575.86
2018-12-13T05:01:50.261Z,100575.83
2018-12-13T05:04:16.412Z,100576.19
2018-12-13T05:06:42.966Z,100571.54
2018-12-13T05:09:09.318Z,100576.80
2018-12-13T05:11:36.664Z,100578.63
2018-12-13T05:14:03.008Z,100583.31
2018-12-13T05:16:29.177Z,100576.23
2018-12-13T05:18:55.394Z,100574.70
2018-12-13T05:21:21.690Z,100574.83
2018-12-13T05:23:47.897Z,100575.39
2018-12-13T05:26:14.182Z,100573.48
2018-12-13T05:28:40.451Z,100571.06
2018-12-13T05:31:06.643Z,100580.36
2018-12-13T05:33:32.724Z,100578.70
2018-12-13T05:35:58.835Z,100577.78
2018-12-13T05:38:25.155Z,100568.80
2018-12-13T05:40:51.281Z,100569.56
2018-12-13T05:43:17.382Z,100570.86
2018-12-13T05:45:43.547Z,100575.92
2018-12-13T05:48:09.777Z,100570.41
2018-12-13T05:50:35.973Z,100567.00
2018-12-13T05:53:02.082Z,100564.70
2018-12-13T05:55:28.549Z,100565.99
2018-12-13T05:57:54.701Z,100571.30
2018-12-13T06:00:21.792Z,100564.25
2018-12-13T06:02:48.549Z,100566.80
2018-12-13T06:05:14.817Z,100575.02
2018-12-13T06:07:41.199Z,100570.86
2018-12-13T06:10:08.293Z,100576.84
2018-12-13T06:12:34.561Z,100573.72
2018-12-13T06:15:01.924Z,100573.56
2018-12-13T06:17:30.183Z,100569.40
2018-12-13T06:19:56.410Z,100569.61
2018-12-13T06:22:23.060Z,100573.08
2018-12-13T06:24:49.286Z,100572.88
2018-12-13T06:27:15.394Z,100571.50
2018-12-13T06:29:45.992Z,100568.51
2018-12-13T06:32:09.869Z,100570.08
2018-12-13T06:34:35.977Z,100576.32
2018-12-13T06:37:02.388Z,100577.77
2018-12-13T06:39:28.612Z,100563.08
2018-12-13T06:41:54.857Z,100570.52
2018-12-13T06:44:21.070Z,100569.53
2018-12-13T06:46:47.418Z,100572.42
2018-12-13T06:49:14.498Z,100566.80
2018-12-13T06:51:41.644Z,100569.63
2018-12-13T06:54:07.800Z,100573.95
2018-12-13T06:56:34.144Z,100563.64
2018-12-13T06:59:00.357Z,100566.16
2018-12-13T07:01:26.592Z,100562.55
2018-12-13T07:03:52.987Z,100557.95
2018-12-13T07:06:19.190Z,100560.59
2018-12-13T07:08:45.423Z,100558.97
2018-12-13T07:11:11.784Z,100555.98
2018-12-13T07:13:38.026Z,100559.37
2018-12-13T07:16:04.393Z,100556.73
2018-12-13T07:18:30.542Z,100559.41
2018-12-13T07:20:56.791Z,100550.17
2018-12-13T07:23:23.088Z,100547.64
2018-12-13T07:25:49.521Z,100547.39
2018-12-13T07:28:15.725Z,100547.36
2018-12-13T07:30:44.621Z,100546.83
2018-12-13T07:33:10.734Z,100543.34
2018-12-13T07:35:36.853Z,100539.52
2018-12-13T07:38:03.078Z,100534.88
2018-12-13T07:40:29.256Z,100546.95
2018-12-13T07:42:55.478Z,100549.57
2018-12-13T07:45:22.928Z,100547.74
2018-12-13T07:47:50.623Z,100547.34
2018-12-13T07:50:16.878Z,100551.53
2018-12-13T07:52:43.013Z,100551.21
2018-12-13T07:55:09.281Z,100548.49
2018-12-13T07:57:35.513Z,100549.16
2018-12-13T08:00:03.892Z,100559.21
2018-12-13T08:02:30.022Z,100543.03
2018-12-13T08:04:56.176Z,100550.63
2018-12-13T08:07:22.391Z,100541.34
2018-12-13T08:09:49.448Z,100547.95
2018-12-13T08:12:15.698Z,100550.04
2018-12-13T08:14:41.913Z,100557.69
2018-12-13T08:17:08.149Z,100551.47
2018-12-13T08:19:34.390Z,100546.74
2018-12-13T08:22:00.697Z,100552.89
2018-12-13T08:24:27.020Z,100549.80
2018-12-13T08:26:53.257Z,100553.41
2018-12-13T08:29:19.437Z,100552.92
2018-12-13T08:31:45.680Z,100557.16
2018-12-13T08:34:11.831Z,100555.17
2018-12-13T08:36:38.062Z,100553.98
2018-12-13T08:39:06.603Z,100555.59
2018-12-13T08:41:33.006Z,100551.39
2018-12-13T08:43:59.320Z,100550.17
2018-12-13T08:46:27.324Z,100556.36
2018-12-13T08:48:54.139Z,100543.66
2018-12-13T08:51:20.339Z,100555.59
2018-12-13T08:53:46.440Z,100550.62
2018-12-13T08:56:12.605Z,100546.91
2018-12-13T08:58:38.826Z,100548.55
2018-12-13T09:01:05.096Z,100550.25
2018-12-13T09:03:31.350Z,100550.22
2018-12-13T09:05:57.548Z,100553.91
2018-12-13T09:08:23.739Z,100553.98
2018-12-13T09:10:56.822Z,100555.55
2018-12-13T09:13:22.930Z,100552.05
2018-12-13T09:15:49.155Z,100544.98
2018-12-13T09:18:15.349Z,100546.86
2018-12-13T09:20:42.062Z,100547.23
2018-12-13T09:23:08.325Z,100543.68
2018-12-13T09:25:34.597Z,100541.47
2018-12-13T09:28:00.757Z,100542.31
2018-12-13T09:30:27.053Z,100541.19
2018-12-13T09:32:53.270Z,100541.65
2018-12-13T09:35:19.584Z,100536.20
2018-12-13T09:37:47.623Z,100529.06
2018-12-13T09:40:14.131Z,100530.60
2018-12-13T09:42:40.238Z,100527.66
2018-12-13T09:45:07.900Z,100527.91
2018-12-13T09:47:34.221Z,100521.53
2018-12-13T09:50:00.387Z,100514.17
2018-12-13T09:52:26.510Z,100510.53
2018-12-13T09:54:52.739Z,100507.53
2018-12-13T09:57:19.060Z,100507.81
2018-12-13T09:59:45.269Z,100503.12
2018-12-13T10:02:11.423Z,100502.06
2018-12-13T10:04:37.537Z,100499.01
2018-12-13T10:07:03.856Z,100488.91
2018-12-13T10:09:29.925Z,100486.45
2018-12-13T10:11:56.195Z,100483.71
2018-12-13T10:14:22.367Z,100486.48
2018-12-13T10:16:49.486Z,100488.33
2018-12-13T10:19:15.630Z,100486.83
2018-12-13T10:21:41.930Z,100488.41
2018-12-13T10:24:08.160Z,100492.16
2018-12-13T10:26:34.381Z,100483.77
2018-12-13T10:29:00.734Z,100484.36
2018-12-13T10:31:26.989Z,100482.47
2018-12-13T10:33:53.203Z,100480.08
2018-12-13T10:36:19.423Z,100480.97
2018-12-13T10:38:45.631Z,100485.17
2018-12-13T10:41:11.901Z,100478.52
2018-12-13T10:43:38.117Z,100479.73
2018-12-13T10:46:04.353Z,100481.63
2018-12-13T10:48:30.476Z,100491.47
2018-12-13T10:50:56.737Z,100484.33
2018-12-13T10:53:22.899Z,100477.22
2018-12-13T10:55:49.199Z,100448.12
2018-12-13T10:58:15.561Z,100486.09
2018-12-13T11:00:47.902Z,100484.81
2018-12-13T11:03:22.055Z,100481.58
2018-12-13T11:05:48.377Z,100473.41
2018-12-13T11:08:14.753Z,100477.80
2018-12-13T11:10:40.870Z,100474.02
2018-12-13T11:13:07.117Z,100474.47
2018-12-13T11:15:33.267Z,100474.37
2018-12-13T11:17:59.488Z,100472.02
2018-12-13T11:20:25.824Z,100473.48
2018-12-13T11:22:52.064Z,100474.16
2018-12-13T11:25:18.292Z,100471.50
2018-12-13T11:30:55.245Z,100467.87
2018-12-13T11:33:21.370Z,100460.41
2018-12-13T11:35:47.609Z,100466.61
2018-12-13T11:38:13.947Z,100458.14
2018-12-13T11:40:40.205Z,100456.19
2018-12-13T11:43:06.409Z,100455.32
2018-12-13T11:45:32.735Z,100454.96
2018-12-13T11:47:59.976Z,100447.25
2018-12-13T11:50:26.515Z,100444.06
2018-12-13T11:52:52.758Z,100437.57
2018-12-13T11:55:29.122Z,100433.31
2018-12-13T11:57:55.496Z,100440.84
2018-12-13T12:00:21.617Z,100441.69
2018-12-13T12:02:48.012Z,100443.74
2018-12-13T12:05:14.170Z,100439.47
2018-12-13T12:07:40.307Z,100440.85
2018-12-13T12:10:06.679Z,100441.02
2018-12-13T12:12:33.040Z,100441.13
2018-12-13T12:14:59.328Z,100440.37
2018-12-13T12:17:25.555Z,100436.73
2018-12-13T12:19:51.692Z,100437.94
2018-12-13T12:22:17.985Z,100431.06
2018-12-13T12:24:44.211Z,100429.76
2018-12-13T12:27:10.430Z,100434.70
2018-12-13T12:29:36.634Z,100414.53
2018-12-13T12:32:03.647Z,100432.96
2018-12-13T12:34:36.982Z,100434.19
2018-12-13T12:37:03.341Z,100429.87
2018-12-13T12:39:29.472Z,100427.91
2018-12-13T12:41:55.701Z,100427.52
2018-12-13T12:50:17.604Z,100419.48
2018-12-13T12:52:43.829Z,100417.69
2018-12-13T12:55:10.137Z,100416.27
2018-12-13T12:57:36.324Z,100421.59
2018-12-13T13:11:52.831Z,100413.24
2018-12-13T13:14:19.086Z,100405.06
2018-12-13T13:16:46.027Z,100409.42
2018-12-13T13:19:12.433Z,100407.56
2018-12-13T13:21:38.675Z,100407.50
2018-12-13T13:24:04.808Z,100408.77
2018-12-13T13:26:31.046Z,100401.36
2018-12-13T13:28:57.209Z,100402.48
2018-12-13T13:31:23.306Z,100402.78
2018-12-13T13:33:49.559Z,100403.10
2018-12-13T13:36:15.758Z,100399.77
2018-12-13T13:38:42.578Z,100396.62
2018-12-13T13:41:08.662Z,100404.12
2018-12-13T13:43:34.969Z,100404.97
2018-12-13T13:46:01.086Z,100402.91
2018-12-13T13:48:27.289Z,100404.29
2018-12-13T13:50:53.494Z,100403.52
2018-12-13T13:53:19.596Z,100404.11
2018-12-13T13:55:46.101Z,100407.47
2018-12-13T13:58:12.387Z,100407.14
2018-12-13T14:00:38.932Z,100407.53
2018-12-13T14:03:05.207Z,100414.35
2018-12-13T14:05:31.445Z,100405.78
2018-12-13T14:07:57.696Z,100396.35
2018-12-13T14:10:24.101Z,100405.08
2018-12-13T14:12:50.217Z,100401.05
2018-12-13T14:15:16.683Z,100398.72
2018-12-13T14:17:43.054Z,100398.66
2018-12-13T14:20:09.441Z,100404.89
2018-12-13T14:22:35.675Z,100408.27
2018-12-13T14:25:02.194Z,100399.57
2018-12-13T14:27:29.547Z,100399.96
2018-12-13T14:29:55.819Z,100394.31
2018-12-13T14:32:21.954Z,100405.02
2018-12-13T14:34:48.177Z,100397.31
2018-12-13T14:37:14.281Z,100404.94
2018-12-13T14:39:44.450Z,100404.48
2018-12-13T14:42:08.885Z,100406.27
2018-12-13T14:44:35.249Z,100402.81
2018-12-13T14:47:01.478Z,100401.05
2018-12-13T14:49:35.550Z,100406.08
2018-12-13T14:52:01.924Z,100403.14
2018-12-13T14:54:28.357Z,100399.33
2018-12-13T14:56:54.756Z,100399.83
2018-12-13T14:59:20.850Z,100400.61
2018-12-13T15:01:47.424Z,100403.41
2018-12-13T15:04:13.718Z,100397.88
2018-12-13T15:06:40.026Z,100391.61
2018-12-13T15:09:06.302Z,100394.51
2018-12-13T15:11:32.813Z,100396.90
2018-12-13T15:13:59.585Z,100401.59
2018-12-13T15:16:26.003Z,100388.80
2018-12-13T15:18:52.987Z,100398.14
2018-12-13T15:21:20.246Z,100394.31
2018-12-13T15:23:46.537Z,100407.50
2018-12-13T15:26:17.475Z,100401.46
2018-12-13T15:28:44.788Z,100404.95
2018-12-13T15:31:14.488Z,100399.75
2018-12-13T15:33:40.649Z,100399.37
2018-12-13T15:36:08.075Z,100397.36
2018-12-13T15:38:35.712Z,100405.59
2018-12-13T15:41:02.806Z,100406.45
2018-12-13T15:43:29.854Z,100405.80
2018-12-13T15:45:55.984Z,100402.86
2018-12-13T15:48:22.242Z,100399.33
2018-12-13T15:50:49.464Z,100393.92
2018-12-13T15:53:16.818Z,100403.78
2018-12-13T15:55:43.020Z,100401.30
2018-12-13T15:58:09.234Z,100396.51
2018-12-13T16:00:35.495Z,100394.13
2018-12-13T16:03:01.658Z,100396.54
2018-12-13T16:05:27.891Z,100397.39
2018-12-13T16:07:54.161Z,100395.41
2018-12-13T16:10:20.286Z,100386.27
2018-12-13T16:12:46.466Z,100391.20
2018-12-13T16:15:14.199Z,100392.74
2018-12-13T16:17:40.459Z,100391.70
2018-12-13T16:20:06.934Z,100388.73
2018-12-13T16:22:33.938Z,100397.03
2018-12-13T16:25:00.116Z,100391.20
2018-12-13T16:27:28.158Z,100393.00
2018-12-13T16:29:54.691Z,100391.66
2018-12-13T16:32:20.804Z,100386.75
2018-12-13T16:34:47.240Z,100381.84
2018-12-13T16:37:13.978Z,100385.02
2018-12-13T16:39:41.064Z,100387.19
2018-12-13T16:42:07.533Z,100384.25
2018-12-13T16:44:33.740Z,100390.45
2018-12-13T16:47:01.069Z,100386.83
2018-12-13T16:49:27.201Z,100394.17
2018-12-13T16:51:54.376Z,100392.89
2018-12-13T16:54:20.563Z,100398.03
2018-12-13T16:56:46.710Z,100397.73
2018-12-13T16:59:13.661Z,100397.86
2018-12-13T17:01:40.507Z,100398.31
2018-12-13T17:04:09.824Z,100395.34
2018-12-13T17:06:36.214Z,100395.84
2018-12-13T17:09:06.127Z,100397.63
2018-12-13T17:11:32.486Z,100395.20
2018-12-13T17:13:58.684Z,100394.45
2018-12-13T17:16:24.971Z,100396.66
2018-12-13T17:18:51.151Z,100392.83
2018-12-13T17:21:18.200Z,100391.98
2018-12-13T17:23:44.375Z,100393.98
2018-12-13T17:26:11.638Z,100399.37
2018-12-13T17:28:38.785Z,100396.66
2018-12-13T17:31:05.819Z,100398.21
2018-12-13T17:33:32.783Z,100388.54
2018-12-13T17:35:59.118Z,100401.41
2018-12-13T17:38:26.295Z,100396.58
2018-12-13T17:40:52.990Z,100398.73
2018-12-13T17:43:20.606Z,100403.47
2018-12-13T17:45:47.862Z,100402.22
2018-12-13T17:48:15.025Z,100404.17
2018-12-13T17:50:41.138Z,100403.91
2018-12-13T17:53:08.217Z,100406.37
2018-12-13T17:55:35.524Z,100408.72
2018-12-13T17:58:01.753Z,100408.52
2018-12-13T18:00:28.033Z,100411.58
2018-12-13T18:02:54.305Z,100415.30
2018-12-13T18:05:20.417Z,100413.52
2018-12-13T18:07:46.727Z,100410.59
2018-12-13T18:10:13.079Z,100413.41
2018-12-13T18:12:39.665Z,100412.48
2018-12-13T18:15:07.175Z,100416.77
2018-12-13T18:17:33.657Z,100420.33
2018-12-13T18:19:59.855Z,100415.23
2018-12-13T18:22:26.210Z,100421.46
2018-12-13T18:24:53.576Z,100414.77
2018-12-13T18:27:19.786Z,100423.13
2018-12-13T18:29:46.948Z,100419.63
2018-12-13T18:32:13.210Z,100425.95
2018-12-13T18:34:39.382Z,100421.83
2018-12-13T18:37:05.767Z,100422.61
2018-12-13T18:39:33.254Z,100425.16
2018-12-13T18:42:00.321Z,100430.09
2018-12-13T18:44:26.542Z,100421.91
2018-12-13T18:46:52.725Z,100425.09
2018-12-13T18:49:18.818Z,100421.51
2018-12-13T18:51:45.715Z,100423.97
2018-12-13T18:54:11.786Z,100419.68
2018-12-13T18:56:38.657Z,100415.92
2018-12-13T18:59:04.924Z,100417.67
2018-12-13T19:01:38.712Z,100418.25
2018-12-13T19:04:05.077Z,100418.46
2018-12-13T19:06:31.316Z,100416.78
2018-12-13T19:08:57.513Z,100417.05
2018-12-13T19:11:23.860Z,100420.85
2018-12-13T19:13:50.091Z,100417.89
2018-12-13T19:16:16.418Z,100395.11
2018-12-13T19:18:42.631Z,100416.97
2018-12-13T19:21:08.735Z,100413.67
2018-12-13T19:23:34.902Z,100408.20
2018-12-13T19:26:01.215Z,100407.69
2018-12-13T19:28:27.323Z,100410.34
2018-12-13T19:30:53.467Z,100407.61
2018-12-13T19:33:19.587Z,100415.00
2018-12-13T19:35:45.876Z,100414.89
2018-12-13T19:38:12.975Z,100410.48
2018-12-13T19:40:39.236Z,100413.08
2018-12-13T19:43:05.351Z,100410.73
2018-12-13T19:45:32.017Z,100405.94
2018-12-13T19:47:58.228Z,100415.23
2018-12-13T19:50:24.401Z,100411.59
2018-12-13T19:52:50.572Z,100421.38
2018-12-13T19:55:16.717Z,100418.73
2018-12-13T19:57:42.995Z,100417.43
2018-12-13T20:00:09.374Z,100424.63
2018-12-13T20:02:35.489Z,100416.89
2018-12-13T20:05:02.064Z,100419.09
2018-12-13T20:07:28.200Z,100424.23
2018-12-13T20:09:54.389Z,100429.11
2018-12-13T20:12:20.658Z,100432.27
2018-12-13T20:17:26.178Z,100433.06
2018-12-13T20:19:52.529Z,100430.66
2018-12-13T20:22:18.820Z,100436.50
2018-12-13T20:24:45.055Z,100431.96
2018-12-13T20:27:11.331Z,100434.70
2018-12-13T20:29:37.675Z,100434.30
2018-12-13T20:32:04.186Z,100434.61
2018-12-13T20:34:30.543Z,100433.22
2018-12-13T20:36:56.979Z,100435.67
2018-12-13T20:39:23.257Z,100434.02
2018-12-13T20:41:49.744Z,100432.86
2018-12-13T20:44:16.077Z,100443.89
2018-12-13T20:46:42.471Z,100438.25
2018-12-13T20:49:08.756Z,100439.35
2018-12-13T20:51:35.113Z,100445.11
2018-12-13T20:54:01.385Z,100447.45
2018-12-13T20:56:27.735Z,100445.45
2018-12-13T20:58:53.854Z,100443.45
2018-12-13T21:01:19.982Z,100442.31
2018-12-13T21:03:46.117Z,100447.78
2018-12-13T21:06:12.474Z,100451.28
2018-12-13T21:08:38.854Z,100452.13
2018-12-13T21:11:07.573Z,100460.86
2018-12-13T21:13:34.088Z,100462.06
2018-12-13T21:16:00.409Z,100452.44
2018-12-13T21:18:26.684Z,100453.32
2018-12-13T21:20:52.974Z,100454.53
2018-12-13T21:23:19.298Z,100451.94
2018-12-13T21:25:45.478Z,100455.13
2018-12-13T21:28:11.868Z,100453.48
2018-12-13T21:30:38.009Z,100451.99
2018-12-13T21:33:04.486Z,100454.83
2018-12-13T21:35:30.880Z,100445.64
2018-12-13T21:37:57.508Z,100440.00
2018-12-13T21:40:23.701Z,100439.91
2018-12-13T21:42:50.161Z,100450.63
2018-12-13T21:45:17.445Z,100448.69
2018-12-13T21:47:43.863Z,100447.25
2018-12-13T21:50:10.490Z,100455.08
2018-12-13T21:52:36.863Z,100449.38
2018-12-13T21:55:03.725Z,100449.28
2018-12-13T21:57:29.997Z,100444.14
2018-12-13T21:59:57.685Z,100449.18
2018-12-13T22:02:24.045Z,100450.98
2018-12-13T22:04:50.196Z,100448.79
2018-12-13T22:07:23.354Z,100444.31
2018-12-13T22:09:49.647Z,100450.14
2018-12-13T22:12:15.994Z,100444.84
2018-12-13T22:14:42.098Z,100449.89
2018-12-13T22:17:08.456Z,100449.34
2018-12-13T22:19:34.594Z,100451.19
2018-12-13T22:22:00.756Z,100449.58
2018-12-13T22:24:26.903Z,100452.72
2018-12-13T22:26:53.141Z,100457.70
2018-12-13T22:29:19.985Z,100457.20
2018-12-13T22:31:46.819Z,100455.01
2018-12-13T22:34:13.587Z,100453.22
2018-12-13T22:36:40.557Z,100453.77
2018-12-13T22:39:06.896Z,100449.58
2018-12-13T22:41:33.133Z,100454.21
2018-12-13T22:44:06.239Z,100451.38
2018-12-13T22:46:32.713Z,100447.93
2018-12-13T22:48:58.879Z,100448.98
2018-12-13T22:51:25.129Z,100447.27
2018-12-13T22:53:51.486Z,100450.13
2018-12-13T22:56:18.417Z,100452.62
2018-12-13T22:58:44.745Z,100454.33
2018-12-13T23:01:11.019Z,100443.05
2018-12-13T23:03:37.647Z,100451.41
2018-12-13T23:06:03.981Z,100450.92
2018-12-13T23:08:30.213Z,100445.05
2018-12-13T23:10:56.975Z,100444.44
2018-12-13T23:13:23.254Z,100443.19
2018-12-13T23:15:49.578Z,100449.67
2018-12-13T23:18:15.689Z,100443.73
2018-12-13T23:20:41.968Z,100451.86
2018-12-13T23:23:08.292Z,100454.45
2018-12-13T23:25:34.401Z,100455.31
2018-12-13T23:28:00.672Z,100452.88
2018-12-13T23:30:27.002Z,100286.64
2018-12-13T23:32:53.280Z,100450.98
2018-12-13T23:35:19.521Z,100449.67
2018-12-13T23:37:45.701Z,100442.45
2018-12-13T23:40:12.048Z,100449.48
2018-12-13T23:42:38.149Z,100444.45
2018-12-13T23:45:11.314Z,100444.64
2018-12-13T23:47:37.554Z,100445.34
2018-12-13T23:50:04.486Z,100449.83
2018-12-13T23:55:10.058Z,100447.19
2018-12-13T23:57:36.180Z,100454.94
